< < Back
Terminal Aerodrome Forecast


Current Version              Previous Versions:   1  2  3  4  5  6  7  8  9  

Terminal Aerodrome Forecast

728
FTUS44 KBMX 111723
TAFMGM
TAF
KMGM 111723Z 1118/1218 26009KT P6SM SCT050
     FM120000 VRB04KT P6SM BKN050
     FM121500 27009KT P6SM SCT050=

Latest METAR

626
SAUS80 KWBC 121200 RRB
MTRMGM
METAR KMGM 121153Z 00000KT 10SM FEW010 06/01 A3014 RMK AO2 SLP206
T00560011 10094 20044 53005


USA.gov is the U.S. government's official web portal to all federal, state and local government web resources and services.